Moriarty, NM

7:23 PM MST on December 22, 2014 (GMT -0700)
Moriarty | Change Station
CLOSE
Current Station
Airport
Location: Moriarty,
Elevation: 6198 ft
Nearby Weather Stations
Active Advisory: Winter Weather Advisory Active Notice: Public Information Statement

Elev 6198 ft 34.99 °N, 106.01 °W | Updated 8 minutes ago

Mostly Cloudy
Mostly Cloudy
42 °F
Feels Like 31 °F
N
31
Wind Variable Wind from WNW
Gusts 43 mph

Today
High -- | Low -- °F
--% Chance of Precip.
Yesterday
High -- | Low -- °F
Precip. -- in
7:08 AM 4:56 PM
New Moon, 1% visible
Pressure 29.74 in
Visibility 10.0 miles
Clouds Scattered Clouds 6000 ft
Scattered Clouds 7000 ft
Scattered Clouds 9000 ft
Windchill 31 °F
Dew Point 30 °F
Humidity 61%
Rainfall 0.00 in
Snow Depth Not available.
UV 0 out of 12
Pollen 5.00 out of 12
Air Quality Not available.
Flu Activity Not available.
METAR K0E0 230215Z AUTO 30027G37KT 10SM SCT060 SCT070 SCT090 06/M01 A2974 RMK AO2 T00561014

More Conditions Fewer Conditions

Pressure 29.74 in
Visibility 10.0 miles
Clouds Scattered Clouds 6000 ft
Scattered Clouds 7000 ft
Scattered Clouds 9000 ft
Windchill 31 °F
Dew Point 30 °F
Humidity 61%
Rainfall 0.00 in
Snow Depth Not available.
UV 0 out of 12
Pollen 5.00 out of 12
Air Quality Not available.
Flu Activity Not available.
METAR K0E0 230215Z AUTO 30027G37KT 10SM SCT060 SCT070 SCT090 06/M01 A2974 RMK AO2 T00561014

More Conditions Fewer Conditions

Nowcast | as of 6:22 PM MST on December 22, 2014

Showers will gradually diminish through 8 PM MST...but strong northwest winds will persist over the mountains and adjacent Highlands. A few gusts to between 40 and 50 mph are possible... especially across the Southwest Mountains. Showers will produce mainly trace amounts of snow.

×

10-Day Weather Forecast

Almanac

Astronomy

Dec. 22, 2014 Rise Set
Actual Time
Civil Twilight
Nautical Twilight
Astronomical Twilight
Moon
Length of Visible Light
Length of Day
Tomorrow will be .
, % of the Moon is Illuminated

Today's Extremes

State Highs State Lows

Community

WunderPhotos

Upload Photos

1,779,761 photos uploaded!

WunderBlogs® & News

Nearby

Air Quality

  Air Quality AQ Index Pollutant
Not available.

Snow Depth

Station Depth Elevation

Earthquake Activity

City Distance Mag. Time & Date
Minimum magnitude displayed is 2.5.

Coastal Water Temperatures

Place Temperature

Nearby Weather Stations